Time;durP1;ratioP1;P1;durP2;ratioP2;P2;SDS_P1;SDS_P2;PMS_P1;PMS_P2;Temp;Humidity;BMP_temperature;BMP_pressure;BME280_temperature;BME280_humidity;BME280_pressure;Samples;Min_cycle;Max_cycle;Signal;HPM_P1;HPM_P2
2023/05/19 00:01:08;;;;;;;8.07;4.75;;;10.10;99.90;;;;;;4972191;28;20095;-81
2023/05/19 00:03:39;;;;;;;6.43;4.78;;;10.10;99.90;;;;;;5008738;28;20427;-77
2023/05/19 00:06:09;;;;;;;9.80;4.88;;;10.00;99.90;;;;;;4994267;28;20485;-78
2023/05/19 00:08:37;;;;;;;12.60;5.22;;;10.00;99.90;;;;;;4968315;28;20042;-79
2023/05/19 00:11:03;;;;;;;10.60;5.10;;;10.00;99.90;;;;;;4973944;28;20099;-76
2023/05/19 00:13:29;;;;;;;9.00;4.90;;;10.00;99.90;;;;;;5047069;28;20038;-76
2023/05/19 00:15:55;;;;;;;8.98;4.53;;;9.90;99.90;;;;;;4965382;28;21020;-77
2023/05/19 00:18:21;;;;;;;8.82;5.20;;;9.90;99.90;;;;;;4965667;28;20133;-75
2023/05/19 00:20:48;;;;;;;8.18;4.32;;;10.00;99.90;;;;;;5008202;28;20045;-76
2023/05/19 00:23:14;;;;;;;9.18;5.07;;;10.10;99.90;;;;;;4988173;28;20084;-80
2023/05/19 00:25:39;;;;;;;10.77;5.38;;;10.10;99.90;;;;;;4957112;28;21633;-79
2023/05/19 00:28:05;;;;;;;11.27;4.90;;;10.10;99.90;;;;;;5034311;28;21482;-79
2023/05/19 00:30:31;;;;;;;9.40;4.80;;;10.20;99.90;;;;;;4992618;28;20045;-78
2023/05/19 00:32:57;;;;;;;11.23;5.35;;;10.40;99.90;;;;;;5046914;28;20050;-76
2023/05/19 00:35:23;;;;;;;11.02;4.40;;;10.30;99.90;;;;;;4986488;28;20121;-75
2023/05/19 00:37:49;;;;;;;9.18;4.68;;;10.40;99.90;;;;;;5007016;28;20053;-78
2023/05/19 00:40:15;;;;;;;11.90;5.00;;;10.50;99.90;;;;;;4955749;28;20041;-75
2023/05/19 00:42:41;;;;;;;13.27;5.88;;;10.50;99.90;;;;;;4981558;28;20048;-80
2023/05/19 00:45:07;;;;;;;8.95;4.38;;;10.50;99.90;;;;;;4954274;28;20090;-77
2023/05/19 00:47:33;;;;;;;9.90;4.50;;;10.40;99.90;;;;;;5005552;28;20054;-76
2023/05/19 00:49:59;;;;;;;9.30;4.40;;;10.50;99.90;;;;;;5049938;28;20037;-75
2023/05/19 00:52:26;;;;;;;12.60;4.82;;;10.40;99.90;;;;;;4982986;28;20046;-77
2023/05/19 00:54:52;;;;;;;9.35;4.47;;;10.50;99.90;;;;;;4983279;28;20876;-77
2023/05/19 00:57:19;;;;;;;9.63;3.75;;;10.40;99.90;;;;;;5008454;28;20414;-76
2023/05/19 00:59:46;;;;;;;8.85;4.15;;;10.60;99.90;;;;;;4985699;28;20476;-78
2023/05/19 01:02:13;;;;;;;8.73;4.00;;;10.50;99.90;;;;;;5016735;28;20373;-83
2023/05/19 01:04:40;;;;;;;7.32;4.10;;;10.50;99.90;;;;;;4969784;28;20038;-76
2023/05/19 01:07:06;;;;;;;9.18;4.28;;;10.50;99.90;;;;;;4972569;28;20041;-77
2023/05/19 01:09:32;;;;;;;8.55;3.95;;;10.50;99.90;;;;;;4971265;28;20103;-79
2023/05/19 01:12:00;;;;;;;9.65;3.95;;;10.50;99.90;;;;;;4981649;28;20541;-80
2023/05/19 01:14:27;;;;;;;11.90;4.35;;;10.50;99.90;;;;;;4996043;28;20064;-79
2023/05/19 01:17:04;;;;;;;14.52;5.38;;;10.30;99.90;;;;;;4980410;28;20034;-78
2023/05/19 01:19:48;;;;;;;11.82;4.85;;;10.40;99.90;;;;;;4986635;28;20041;-83
2023/05/19 01:22:35;;;;;;;11.48;4.13;;;10.30;99.90;;;;;;4985884;28;20037;-87
2023/05/19 01:25:41;;;;;;;13.55;4.50;;;10.30;99.90;;;;;;4968421;28;20128;-76
2023/05/19 01:28:31;;;;;;;10.23;3.83;;;10.30;99.90;;;;;;4978755;28;20053;-81
2023/05/19 01:30:59;;;;;;;6.50;3.40;;;10.20;99.90;;;;;;4983919;28;20069;-82
2023/05/19 01:33:27;;;;;;;12.95;4.20;;;10.20;99.90;;;;;;4986917;28;20038;-78
2023/05/19 01:35:54;;;;;;;12.65;4.07;;;10.30;99.90;;;;;;4981775;28;20113;-83
2023/05/19 01:38:20;;;;;;;8.88;3.95;;;10.40;99.90;;;;;;4971808;28;20038;-80
2023/05/19 01:40:48;;;;;;;8.43;3.80;;;10.20;99.90;;;;;;4969496;28;20402;-78
2023/05/19 01:43:19;;;;;;;7.45;3.75;;;10.10;99.90;;;;;;4988611;28;20053;-84
2023/05/19 01:45:46;;;;;;;6.18;3.67;;;10.20;99.90;;;;;;4982602;28;20042;-83
2023/05/19 01:48:13;;;;;;;9.05;3.95;;;10.00;99.90;;;;;;4988206;28;20050;-83
2023/05/19 01:50:40;;;;;;;14.40;4.63;;;10.10;99.90;;;;;;4983126;28;20046;-83
2023/05/19 01:53:06;;;;;;;8.52;4.40;;;10.00;99.90;;;;;;4974703;28;20421;-83
2023/05/19 01:55:41;;;;;;;9.85;3.25;;;9.90;99.90;;;;;;5058440;28;20045;-77
2023/05/19 01:58:24;;;;;;;9.05;4.28;;;10.00;99.90;;;;;;4997569;28;20510;-82
2023/05/19 02:01:12;;;;;;;12.23;4.50;;;10.00;99.90;;;;;;4980817;28;20049;-77
2023/05/19 02:03:50;;;;;;;6.88;3.58;;;10.00;99.90;;;;;;4984355;28;20544;-78
2023/05/19 02:06:38;;;;;;;11.80;4.22;;;10.00;99.90;;;;;;4979312;28;20458;-72
2023/05/19 02:09:18;;;;;;;14.70;4.32;;;10.20;99.90;;;;;;4969173;28;20421;-75
2023/05/19 02:11:59;;;;;;;7.70;3.80;;;10.20;99.90;;;;;;4988776;28;20084;-77
2023/05/19 02:14:31;;;;;;;10.13;3.97;;;10.00;99.90;;;;;;4991761;28;22155;-78
2023/05/19 02:16:58;;;;;;;8.95;3.83;;;10.10;99.90;;;;;;4975380;28;20038;-80
2023/05/19 02:19:26;;;;;;;14.00;5.00;;;10.10;99.90;;;;;;4977716;28;20078;-80
2023/05/19 02:21:51;;;;;;;8.20;4.25;;;10.10;99.90;;;;;;5009200;28;20426;-86
2023/05/19 02:24:19;;;;;;;12.95;4.15;;;10.20;99.90;;;;;;4957005;28;20049;-77
2023/05/19 02:27:06;;;;;;;9.25;4.00;;;10.20;99.90;;;;;;4967144;28;20073;-83
2023/05/19 02:29:32;;;;;;;10.00;4.10;;;10.20;99.90;;;;;;4941768;28;20057;-79
2023/05/19 02:32:01;;;;;;;17.05;4.00;;;10.20;99.90;;;;;;4949651;28;20458;-78
2023/05/19 02:34:26;;;;;;;9.05;3.83;;;9.90;99.90;;;;;;4967564;28;20042;-79
2023/05/19 02:36:52;;;;;;;5.57;3.03;;;9.90;99.90;;;;;;5003889;28;20050;-83
2023/05/19 02:39:18;;;;;;;7.53;3.20;;;9.80;99.90;;;;;;4987993;28;20133;-81
2023/05/19 02:41:43;;;;;;;5.50;3.28;;;9.60;99.90;;;;;;4972823;28;20046;-77
2023/05/19 02:44:09;;;;;;;10.27;3.22;;;9.60;99.90;;;;;;4983426;28;20102;-76
2023/05/19 02:46:38;;;;;;;8.00;3.20;;;9.50;99.90;;;;;;4978431;28;20377;-76
2023/05/19 02:49:06;;;;;;;7.30;3.30;;;11.00;99.90;;;;;;4966239;28;20058;-80
2023/05/19 02:51:32;;;;;;;11.07;3.97;;;9.50;99.90;;;;;;4986668;28;20045;-77
2023/05/19 02:53:57;;;;;;;5.93;3.45;;;9.70;99.90;;;;;;4971643;28;20038;-77
2023/05/19 02:56:23;;;;;;;8.82;3.50;;;9.60;99.90;;;;;;4973381;28;20137;-77
2023/05/19 02:58:49;;;;;;;7.35;3.70;;;9.60;99.90;;;;;;4959366;28;20532;-78
2023/05/19 03:01:15;;;;;;;10.38;3.42;;;9.60;99.90;;;;;;4978494;28;20054;-80
2023/05/19 03:03:40;;;;;;;6.43;3.50;;;9.70;99.90;;;;;;4992080;28;20521;-77
2023/05/19 03:06:07;;;;;;;8.80;3.35;;;9.80;99.90;;;;;;4995048;28;20397;-79
2023/05/19 03:08:34;;;;;;;10.80;3.85;;;9.80;99.90;;;;;;4989201;28;20356;-81
2023/05/19 03:11:00;;;;;;;11.65;3.60;;;9.80;99.90;;;;;;4985869;28;20042;-77
2023/05/19 03:13:26;;;;;;;8.73;4.10;;;9.80;99.90;;;;;;5040141;28;20034;-81
2023/05/19 03:15:52;;;;;;;9.13;4.35;;;9.90;99.90;;;;;;4953585;28;20100;-79
2023/05/19 03:18:17;;;;;;;13.10;4.60;;;10.00;99.90;;;;;;4965493;28;20042;-77
2023/05/19 03:20:46;;;;;;;9.63;4.30;;;10.00;99.90;;;;;;4957458;28;20133;-74
2023/05/19 03:23:12;;;;;;;8.85;4.95;;;10.00;99.90;;;;;;4986424;28;20562;-79
2023/05/19 03:25:37;;;;;;;10.55;4.32;;;10.20;99.90;;;;;;4971469;28;20121;-80
2023/05/19 03:28:03;;;;;;;11.18;5.03;;;10.10;99.90;;;;;;4987003;28;20042;-81
2023/05/19 03:30:29;;;;;;;10.45;5.25;;;10.00;99.90;;;;;;4976154;28;20073;-80
2023/05/19 03:32:54;;;;;;;10.18;4.22;;;10.00;99.90;;;;;;4986930;28;20042;-80
2023/05/19 03:35:20;;;;;;;7.15;3.08;;;10.00;99.90;;;;;;4966186;28;20126;-82
2023/05/19 03:37:46;;;;;;;5.00;3.33;;;9.50;99.90;;;;;;4971657;28;20125;-75
2023/05/19 03:40:12;;;;;;;6.35;3.08;;;9.50;99.90;;;;;;4951616;28;20045;-77
2023/05/19 03:42:38;;;;;;;8.27;3.42;;;9.50;99.90;;;;;;5074960;28;20061;-80
2023/05/19 03:45:04;;;;;;;5.78;3.45;;;9.50;99.90;;;;;;4959925;28;20039;-75
2023/05/19 03:47:30;;;;;;;7.45;3.83;;;9.80;99.90;;;;;;4958645;28;20120;-76
2023/05/19 03:49:56;;;;;;;6.38;3.80;;;9.80;99.90;;;;;;4982241;28;20795;-79
2023/05/19 03:52:21;;;;;;;8.73;3.95;;;10.10;99.90;;;;;;4989185;28;20046;-78
2023/05/19 03:54:47;;;;;;;12.73;3.80;;;10.10;99.90;;;;;;4970152;28;20451;-77
2023/05/19 03:57:13;;;;;;;6.63;3.58;;;10.10;99.90;;;;;;5051282;28;20091;-75
2023/05/19 03:59:40;;;;;;;10.70;3.63;;;10.30;99.90;;;;;;4951474;28;20065;-78
2023/05/19 04:02:06;;;;;;;18.67;3.72;;;10.20;99.90;;;;;;4928268;28;20066;-79
2023/05/19 04:04:32;;;;;;;11.00;3.58;;;10.30;99.90;;;;;;4941092;28;20073;-77
2023/05/19 04:06:57;;;;;;;7.25;3.42;;;10.30;99.90;;;;;;4957288;28;20264;-79
2023/05/19 04:09:23;;;;;;;6.82;3.70;;;10.30;99.90;;;;;;4959304;28;20039;-77
2023/05/19 04:11:49;;;;;;;6.43;4.00;;;10.30;99.90;;;;;;4942329;28;20049;-79
2023/05/19 04:14:15;;;;;;;8.43;4.15;;;10.10;99.90;;;;;;4973516;28;21631;-78
2023/05/19 04:16:40;;;;;;;8.90;4.63;;;10.40;99.90;;;;;;4928605;28;20038;-79
2023/05/19 04:19:06;;;;;;;10.40;4.70;;;10.30;99.90;;;;;;4966982;28;20043;-79
2023/05/19 04:21:32;;;;;;;11.40;4.70;;;10.30;99.90;;;;;;4945539;28;20077;-79
2023/05/19 04:23:58;;;;;;;8.50;3.90;;;10.30;99.90;;;;;;4941037;28;20837;-77
2023/05/19 04:26:25;;;;;;;4.68;2.65;;;10.50;99.90;;;;;;4962403;28;20538;-80
2023/05/19 04:28:52;;;;;;;10.43;4.03;;;10.10;99.90;;;;;;4934644;28;20031;-80
2023/05/19 04:31:20;;;;;;;4.07;3.03;;;10.00;99.90;;;;;;4965248;28;20132;-80
2023/05/19 04:33:47;;;;;;;5.55;3.08;;;10.00;99.90;;;;;;4947312;28;20039;-83
2023/05/19 04:36:12;;;;;;;3.95;2.95;;;9.80;99.90;;;;;;4961659;28;20047;-78
2023/05/19 04:38:38;;;;;;;4.57;3.03;;;9.70;99.90;;;;;;4946319;28;20081;-82
2023/05/19 04:41:08;;;;;;;5.93;3.58;;;9.90;99.90;;;;;;4968774;28;20078;-78
2023/05/19 04:43:35;;;;;;;6.30;3.85;;;9.90;99.90;;;;;;4949575;28;20491;-74
2023/05/19 04:46:04;;;;;;;4.63;3.90;;;9.80;99.90;;;;;;4947204;28;20078;-77
2023/05/19 04:48:30;;;;;;;5.03;3.42;;;9.80;99.90;;;;;;4956472;28;20069;-75
2023/05/19 04:50:56;;;;;;;3.50;2.58;;;9.80;99.90;;;;;;4946609;28;20137;-77
2023/05/19 04:53:24;;;;;;;3.50;2.33;;;9.90;99.90;;;;;;4931530;28;20395;-76
2023/05/19 04:55:50;;;;;;;4.05;2.80;;;10.00;99.90;;;;;;4978304;28;20043;-78
2023/05/19 04:58:16;;;;;;;6.13;3.17;;;10.30;99.90;;;;;;4948902;28;20364;-75
2023/05/19 05:00:41;;;;;;;6.10;4.50;;;10.20;99.90;;;;;;4949818;28;20108;-77
2023/05/19 05:03:07;;;;;;;12.07;4.88;;;10.40;99.90;;;;;;4958664;28;20062;-77
2023/05/19 05:05:34;;;;;;;7.63;5.22;;;10.80;99.90;;;;;;4962714;28;20035;-80
2023/05/19 05:08:00;;;;;;;13.38;5.95;;;11.10;99.90;;;;;;4944981;28;20047;-82
2023/05/19 05:10:26;;;;;;;10.52;5.55;;;11.20;99.90;;;;;;4956432;28;20053;-76
2023/05/19 05:12:52;;;;;;;14.68;7.28;;;11.50;99.90;;;;;;4946507;28;20042;-74
2023/05/19 05:15:18;;;;;;;11.23;5.50;;;11.70;99.90;;;;;;4945308;28;20620;-75
2023/05/19 05:17:44;;;;;;;10.10;5.88;;;11.80;99.90;;;;;;4929909;29;20047;-78
2023/05/19 05:20:11;;;;;;;13.40;6.68;;;11.60;99.90;;;;;;4942488;28;20123;-77
2023/05/19 05:22:37;;;;;;;15.75;7.10;;;11.70;99.90;;;;;;4927544;28;20104;-74
2023/05/19 05:25:04;;;;;;;15.15;7.53;;;12.00;99.90;;;;;;4942628;28;20801;-77
2023/05/19 05:27:30;;;;;;;12.70;6.28;;;12.10;99.90;;;;;;4959583;28;20100;-77
2023/05/19 05:29:56;;;;;;;15.75;6.80;;;12.50;99.90;;;;;;4944142;28;20046;-75
2023/05/19 05:32:21;;;;;;;13.48;6.90;;;12.50;99.90;;;;;;4930349;28;20054;-76
2023/05/19 05:34:47;;;;;;;13.88;7.10;;;12.60;99.90;;;;;;4942843;28;20662;-74
2023/05/19 05:37:14;;;;;;;11.55;6.85;;;12.70;99.90;;;;;;4956665;28;20046;-76
2023/05/19 05:39:40;;;;;;;13.00;7.38;;;12.70;99.90;;;;;;4927896;28;20043;-75
2023/05/19 05:42:21;;;;;;;16.33;8.60;;;12.80;99.90;;;;;;4943083;28;20053;-76
2023/05/19 05:44:47;;;;;;;12.93;6.47;;;12.90;99.90;;;;;;4931528;28;20039;-79
2023/05/19 05:47:14;;;;;;;15.38;6.68;;;13.00;99.90;;;;;;4937763;28;20044;-79
2023/05/19 05:49:40;;;;;;;16.40;7.65;;;13.30;99.90;;;;;;4930804;28;20075;-81
2023/05/19 05:52:12;;;;;;;13.35;7.55;;;13.30;99.90;;;;;;4931458;29;20079;-79
2023/05/19 05:54:39;;;;;;;10.63;7.13;;;13.10;99.90;;;;;;4948437;28;20054;-77
2023/05/19 05:57:05;;;;;;;13.93;7.07;;;13.70;99.90;;;;;;4933950;28;20039;-76
2023/05/19 05:59:32;;;;;;;11.90;7.43;;;13.40;99.90;;;;;;4965098;28;20466;-79
2023/05/19 06:01:58;;;;;;;14.02;7.07;;;13.60;99.90;;;;;;4971469;28;20062;-81
2023/05/19 06:04:24;;;;;;;14.32;8.38;;;13.80;99.90;;;;;;4970010;28;20039;-78
2023/05/19 06:06:51;;;;;;;13.27;7.45;;;13.90;99.90;;;;;;4986545;28;20042;-79
2023/05/19 06:09:17;;;;;;;8.70;6.13;;;13.90;99.90;;;;;;5010552;28;20681;-79
2023/05/19 06:11:43;;;;;;;13.77;6.82;;;13.90;99.90;;;;;;4970284;28;20070;-79
2023/05/19 06:14:09;;;;;;;9.30;6.60;;;13.90;99.90;;;;;;4982542;28;20046;-81
2023/05/19 06:16:35;;;;;;;10.80;5.78;;;13.90;99.90;;;;;;4986590;28;20046;-78
2023/05/19 06:19:00;;;;;;;11.13;6.28;;;14.40;99.90;;;;;;4970368;28;20095;-77
2023/05/19 06:21:26;;;;;;;10.00;6.30;;;14.30;99.90;;;;;;4950158;28;20126;-76
2023/05/19 06:23:52;;;;;;;11.55;4.93;;;14.50;99.90;;;;;;4950799;28;20061;-78
2023/05/19 06:26:17;;;;;;;8.48;5.28;;;14.60;99.90;;;;;;4972274;28;20070;-76
2023/05/19 06:28:44;;;;;;;11.90;5.13;;;14.40;99.90;;;;;;4969565;28;20038;-76
2023/05/19 06:31:10;;;;;;;6.28;4.78;;;14.40;99.90;;;;;;4962321;28;20042;-74
2023/05/19 06:33:35;;;;;;;7.03;4.75;;;14.80;99.90;;;;;;4969833;28;20034;-76
2023/05/19 06:36:01;;;;;;;8.30;4.68;;;14.60;99.90;;;;;;4969179;28;20046;-77
2023/05/19 06:38:27;;;;;;;10.15;3.70;;;14.90;99.90;;;;;;4969491;28;20053;-79
2023/05/19 06:40:52;;;;;;;10.73;3.90;;;15.10;99.90;;;;;;4959506;28;20496;-74
2023/05/19 06:43:18;;;;;;;6.03;4.10;;;15.10;99.90;;;;;;4957957;28;20046;-77
2023/05/19 06:45:44;;;;;;;4.72;3.38;;;15.10;99.90;;;;;;5005743;28;20046;-76
2023/05/19 06:48:09;;;;;;;7.78;3.75;;;15.20;99.90;;;;;;4985312;28;20772;-77
2023/05/19 06:50:35;;;;;;;7.57;4.30;;;15.20;99.90;;;;;;4989019;28;20399;-80
2023/05/19 06:53:01;;;;;;;5.88;3.58;;;15.40;99.90;;;;;;4985384;28;20050;-78
2023/05/19 06:55:27;;;;;;;6.68;3.78;;;15.60;99.90;;;;;;4995164;28;20074;-75
2023/05/19 06:57:52;;;;;;;5.63;3.97;;;15.70;99.90;;;;;;4998941;28;20058;-77
2023/05/19 07:00:19;;;;;;;6.78;4.28;;;15.80;99.90;;;;;;4971323;28;20410;-76
2023/05/19 07:02:44;;;;;;;11.02;5.03;;;15.90;99.90;;;;;;4938412;28;20129;-74
2023/05/19 07:05:10;;;;;;;6.68;3.90;;;16.10;99.90;;;;;;5025189;28;20124;-76
2023/05/19 07:07:36;;;;;;;8.60;4.18;;;16.00;99.90;;;;;;4989751;28;20100;-77
2023/05/19 07:10:02;;;;;;;9.70;4.55;;;16.10;99.90;;;;;;4990865;28;20095;-77
2023/05/19 07:12:27;;;;;;;7.30;4.43;;;16.00;99.90;;;;;;4976782;28;20615;-78
2023/05/19 07:14:53;;;;;;;7.97;4.13;;;16.40;99.90;;;;;;4987702;28;20152;-78
2023/05/19 07:17:19;;;;;;;4.65;3.63;;;16.50;99.90;;;;;;4992490;28;20037;-79
2023/05/19 07:19:45;;;;;;;8.00;3.63;;;16.60;99.90;;;;;;4985624;28;20052;-76
2023/05/19 07:22:10;;;;;;;5.97;3.22;;;16.80;99.90;;;;;;4951526;28;20042;-81
2023/05/19 07:24:36;;;;;;;6.57;3.88;;;16.60;99.90;;;;;;5061757;28;20048;-76
2023/05/19 07:27:02;;;;;;;7.88;3.58;;;16.70;99.90;;;;;;4956311;28;20053;-76
2023/05/19 07:29:27;;;;;;;6.82;2.85;;;17.00;99.90;;;;;;4987280;28;20050;-78
2023/05/19 07:31:56;;;;;;;5.38;3.28;;;16.70;99.90;;;;;;4991057;28;20488;-79
2023/05/19 07:34:23;;;;;;;7.03;3.13;;;16.90;99.90;;;;;;4971844;28;20042;-79
2023/05/19 07:36:53;;;;;;;4.53;2.75;;;16.90;99.90;;;;;;4990459;28;20069;-78
2023/05/19 07:39:20;;;;;;;6.95;3.15;;;16.80;99.90;;;;;;4957496;28;20046;-79
2023/05/19 07:41:51;;;;;;;5.95;2.67;;;16.90;99.90;;;;;;4974924;28;20042;-78
2023/05/19 07:44:17;;;;;;;5.13;2.28;;;16.90;99.90;;;;;;5003621;28;20502;-78
2023/05/19 07:46:43;;;;;;;5.82;2.55;;;16.90;99.90;;;;;;4991508;28;20053;-79
2023/05/19 07:49:09;;;;;;;7.90;3.17;;;17.10;99.90;;;;;;4958375;28;20453;-79
2023/05/19 07:51:35;;;;;;;6.45;3.00;;;17.10;99.90;;;;;;4942682;28;20045;-80
2023/05/19 07:54:04;;;;;;;6.55;3.20;;;17.00;99.90;;;;;;4955303;28;20038;-80
2023/05/19 07:56:32;;;;;;;4.35;2.65;;;17.20;99.90;;;;;;4940741;28;20038;-80
2023/05/19 07:59:14;;;;;;;5.00;2.53;;;17.40;99.90;;;;;;4953208;28;20108;-81
2023/05/19 08:01:39;;;;;;;4.68;2.35;;;17.50;99.90;;;;;;4968227;28;20471;-81
2023/05/19 08:04:05;;;;;;;6.20;2.70;;;17.20;99.90;;;;;;4947386;28;20040;-78
2023/05/19 08:06:31;;;;;;;6.32;2.03;;;17.40;99.90;;;;;;4965288;28;20676;-79
2023/05/19 08:08:56;;;;;;;6.65;2.55;;;17.30;99.90;;;;;;4930857;29;20058;-77
2023/05/19 08:11:22;;;;;;;3.80;1.95;;;17.40;99.90;;;;;;4954213;28;20031;-79
2023/05/19 08:13:48;;;;;;;5.65;2.60;;;17.40;99.90;;;;;;4947183;28;20038;-80
2023/05/19 08:16:15;;;;;;;7.85;2.30;;;17.60;99.90;;;;;;4939900;28;20051;-76
2023/05/19 08:18:40;;;;;;;7.45;2.60;;;17.60;99.90;;;;;;4938232;28;20126;-80
2023/05/19 08:21:06;;;;;;;7.25;2.42;;;17.70;99.90;;;;;;4940299;28;20129;-79
2023/05/19 08:23:36;;;;;;;4.05;1.90;;;17.60;99.90;;;;;;4947327;28;20073;-80
2023/05/19 08:26:01;;;;;;;8.82;2.22;;;17.70;72.00;;;;;;5031771;28;20062;-80
2023/05/19 08:28:27;;;;;;;6.68;2.35;;;17.60;91.10;;;;;;4951883;28;20051;-81
2023/05/19 08:30:53;;;;;;;4.97;2.30;;;17.70;99.90;;;;;;4962506;28;20043;-80
2023/05/19 08:33:21;;;;;;;4.38;2.50;;;18.00;85.80;;;;;;5052467;28;20134;-81
2023/05/19 08:35:47;;;;;;;6.53;2.40;;;18.10;86.30;;;;;;4952350;28;20035;-79
2023/05/19 08:38:13;;;;;;;4.60;2.28;;;18.10;98.50;;;;;;4952230;28;20478;-80
2023/05/19 08:40:47;;;;;;;6.88;3.05;;;18.20;80.10;;;;;;4932238;28;20047;-79
2023/05/19 08:43:13;;;;;;;7.97;2.60;;;18.40;99.90;;;;;;4925619;29;20058;-81
2023/05/19 08:45:43;;;;;;;9.05;2.88;;;18.60;99.90;;;;;;4932138;28;20198;-77
2023/05/19 08:48:10;;;;;;;4.10;2.30;;;18.60;72.40;;;;;;5031279;28;20095;-79
2023/05/19 08:50:42;;;;;;;5.38;2.03;;;18.60;39.90;;;;;;4951602;28;20819;-78
2023/05/19 08:53:18;;;;;;;7.43;2.55;;;18.70;50.30;;;;;;4952012;28;20601;-79
2023/05/19 08:56:18;;;;;;;5.20;2.60;;;18.70;38.90;;;;;;4951547;28;20038;-80
2023/05/19 08:58:44;;;;;;;6.95;2.90;;;18.90;50.10;;;;;;4951051;28;20062;-80
2023/05/19 09:01:18;;;;;;;6.38;2.63;;;18.80;10.60;;;;;;4930926;28;20126;-81
2023/05/19 09:03:45;;;;;;;5.55;2.63;;;18.70;19.40;;;;;;4932905;29;20054;-80
2023/05/19 09:06:11;;;;;;;6.10;2.40;;;19.00;1.00;;;;;;4964261;28;20125;-81
2023/05/19 09:09:25;;;;;;;3.65;2.65;;;19.10;18.30;;;;;;4948849;28;20289;-80
2023/05/19 09:12:03;;;;;;;6.68;3.17;;;18.90;1.00;;;;;;5002725;28;20045;-81
2023/05/19 09:18:14;;;;;;;6.18;2.88;;;19.30;1.00;;;;;;4955966;28;20125;-81
2023/05/19 09:21:01;;;;;;;7.28;2.85;;;19.20;1.00;;;;;;4967316;28;20127;-79
2023/05/19 09:23:32;;;;;;;4.05;2.45;;;19.60;1.00;;;;;;4953455;28;20043;-80
2023/05/19 09:26:07;;;;;;;6.78;3.08;;;20.10;1.00;;;;;;4952531;28;20114;-78
2023/05/19 09:28:37;;;;;;;4.63;2.33;;;19.80;1.00;;;;;;4942295;28;20468;-77
2023/05/19 09:31:08;;;;;;;5.75;2.80;;;19.90;1.00;;;;;;4932180;29;20472;-79
2023/05/19 09:33:35;;;;;;;6.78;2.30;;;19.50;1.00;;;;;;4947584;28;20057;-79
2023/05/19 09:36:04;;;;;;;5.70;2.40;;;19.30;1.00;;;;;;5034901;28;20487;-81
2023/05/19 09:38:30;;;;;;;2.83;2.05;;;19.70;1.00;;;;;;4950121;28;20042;-78
2023/05/19 09:41:00;;;;;;;4.15;2.50;;;20.10;99.90;;;;;;4950619;28;20118;-81
2023/05/19 09:43:29;;;;;;;4.70;2.30;;;20.10;99.90;;;;;;5016460;28;20043;-79
2023/05/19 09:46:00;;;;;;;4.68;2.50;;;19.90;99.90;;;;;;4951666;28;20125;-83
2023/05/19 09:48:26;;;;;;;6.07;3.33;;;20.40;99.90;;;;;;4951665;28;20487;-81
2023/05/19 09:50:53;;;;;;;6.10;2.80;;;20.40;99.90;;;;;;4930285;28;20043;-81
2023/05/19 09:53:20;;;;;;;5.00;2.20;;;20.90;27.30;;;;;;4935525;28;20050;-81
2023/05/19 09:55:47;;;;;;;5.22;2.28;;;21.00;99.90;;;;;;4953336;28;20533;-83
2023/05/19 09:58:20;;;;;;;5.65;2.15;;;20.80;99.90;;;;;;4958915;28;20067;-80
2023/05/19 10:00:47;;;;;;;5.47;2.00;;;20.60;1.00;;;;;;4971617;28;20050;-79
2023/05/19 10:03:15;;;;;;;4.20;2.05;;;21.20;1.00;;;;;;4956676;28;20046;-76
2023/05/19 10:05:42;;;;;;;4.75;2.33;;;22.00;1.00;;;;;;5004309;28;20372;-77
2023/05/19 10:08:09;;;;;;;4.35;2.33;;;21.80;98.50;;;;;;4986670;28;20134;-78
2023/05/19 10:10:37;;;;;;;3.42;2.20;;;21.60;99.90;;;;;;4969667;28;20046;-79
2023/05/19 10:13:05;;;;;;;5.30;2.00;;;20.60;1.00;;;;;;4968363;28;20038;-80
2023/05/19 10:15:32;;;;;;;5.28;1.95;;;21.30;21.40;;;;;;4965884;28;20061;-80
2023/05/19 10:17:59;;;;;;;4.50;2.40;;;21.50;26.90;;;;;;4983055;28;20799;-79
2023/05/19 10:20:25;;;;;;;6.15;2.03;;;21.60;1.00;;;;;;4950399;28;20046;-77
2023/05/19 10:22:51;;;;;;;5.43;2.40;;;21.20;1.00;;;;;;5019388;28;20042;-77
2023/05/19 10:25:18;;;;;;;5.18;2.10;;;20.80;99.90;;;;;;4983568;28;20050;-79
2023/05/19 10:28:12;;;;;;;4.80;1.90;;;21.00;29.30;;;;;;4994956;28;20868;-80
2023/05/19 10:30:41;;;;;;;3.95;2.03;;;20.70;99.90;;;;;;5000886;28;20670;-77
2023/05/19 10:33:12;;;;;;;6.45;2.40;;;20.80;99.90;;;;;;4969694;28;20038;-79
2023/05/19 10:35:50;;;;;;;3.42;1.90;;;21.30;99.90;;;;;;4968875;28;20038;-78
2023/05/19 10:38:33;;;;;;;5.63;2.00;;;21.50;99.90;;;;;;4969649;28;20046;-77
2023/05/19 10:41:05;;;;;;;3.53;1.80;;;21.10;99.90;;;;;;4964310;28;20390;-80
2023/05/19 10:43:48;;;;;;;4.47;1.98;;;20.80;99.90;;;;;;4967917;28;20046;-79
2023/05/19 10:46:14;;;;;;;5.40;2.00;;;20.90;99.90;;;;;;4967848;28;20066;-78
2023/05/19 10:48:44;;;;;;;4.13;1.83;;;20.60;99.90;;;;;;4949440;28;20081;-77
2023/05/19 10:51:11;;;;;;;2.75;1.83;;;21.30;99.90;;;;;;4966442;28;20144;-77
2023/05/19 10:53:45;;;;;;;5.13;2.17;;;21.40;99.90;;;;;;4968761;28;20120;-79
2023/05/19 10:56:28;;;;;;;4.00;2.00;;;21.30;93.00;;;;;;4965125;28;20034;-76
2023/05/19 10:58:53;;;;;;;4.45;2.13;;;21.70;99.90;;;;;;4955145;28;20503;-77
2023/05/19 11:01:21;;;;;;;3.15;1.50;;;22.00;27.70;;;;;;4930910;28;20134;-78
2023/05/19 11:03:48;;;;;;;3.13;1.52;;;22.40;99.90;;;;;;4936894;28;20446;-76
2023/05/19 11:06:23;;;;;;;5.78;1.77;;;22.40;1.00;;;;;;4949734;28;20050;-76
2023/05/19 11:08:57;;;;;;;5.53;2.20;;;22.90;45.30;;;;;;4965964;28;20050;-76
2023/05/19 11:11:23;;;;;;;3.72;2.13;;;23.30;1.00;;;;;;4966051;28;20643;-76
2023/05/19 11:13:53;;;;;;;5.18;2.10;;;23.00;1.00;;;;;;4946407;28;20047;-77
2023/05/19 11:16:31;;;;;;;3.08;2.03;;;22.70;1.00;;;;;;4930163;28;20042;-76
2023/05/19 11:19:00;;;;;;;2.65;1.60;;;23.20;1.00;;;;;;4946593;29;20050;-77
2023/05/19 11:21:41;;;;;;;4.35;1.88;;;22.50;1.00;;;;;;4946948;29;20396;-75
2023/05/19 11:24:08;;;;;;;3.17;1.75;;;22.80;1.00;;;;;;4931597;28;20043;-76
2023/05/19 11:26:42;;;;;;;3.67;2.15;;;22.10;1.00;;;;;;4963689;28;20058;-76
2023/05/19 11:29:08;;;;;;;3.77;2.17;;;22.10;1.00;;;;;;4932696;28;20050;-78
2023/05/19 11:31:35;;;;;;;4.80;1.83;;;22.00;1.00;;;;;;4960064;28;20051;-77
2023/05/19 11:34:01;;;;;;;3.65;2.10;;;22.40;1.00;;;;;;5031658;28;20045;-75
2023/05/19 11:36:27;;;;;;;3.88;2.33;;;22.80;1.00;;;;;;4947512;28;20047;-76
2023/05/19 11:38:54;;;;;;;4.60;2.10;;;22.90;1.00;;;;;;4945572;28;20039;-76
2023/05/19 11:41:20;;;;;;;4.72;2.25;;;22.90;1.00;;;;;;4929275;28;20083;-78
2023/05/19 11:43:46;;;;;;;7.95;2.47;;;22.80;1.00;;;;;;4929729;28;20189;-79
2023/05/19 11:46:12;;;;;;;5.07;2.42;;;23.10;1.00;;;;;;4958570;28;20074;-78
2023/05/19 11:48:38;;;;;;;4.30;2.38;;;23.10;1.00;;;;;;4956982;28;20137;-78
2023/05/19 11:51:07;;;;;;;4.70;2.22;;;22.40;1.00;;;;;;4947708;28;20470;-77
2023/05/19 11:53:35;;;;;;;7.57;2.47;;;22.50;1.00;;;;;;4947776;28;20082;-77
2023/05/19 11:56:03;;;;;;;3.75;2.15;;;22.30;1.00;;;;;;4950633;28;20086;-79
2023/05/19 11:58:29;;;;;;;4.05;2.17;;;22.30;1.00;;;;;;4958427;28;20145;-77
2023/05/19 12:00:55;;;;;;;4.78;2.47;;;22.60;1.00;;;;;;4951352;28;20126;-78
2023/05/19 12:03:26;;;;;;;4.53;2.50;;;22.10;3.00;;;;;;4935425;28;20483;-78
2023/05/19 12:05:52;;;;;;;5.93;2.50;;;21.80;1.00;;;;;;4970996;28;20084;-79
2023/05/19 12:08:18;;;;;;;3.90;2.30;;;22.00;13.10;;;;;;4969821;28;20145;-76
2023/05/19 12:10:49;;;;;;;5.40;2.22;;;22.00;19.00;;;;;;4971377;28;20560;-77
2023/05/19 12:13:14;;;;;;;3.95;2.42;;;22.10;50.60;;;;;;4987947;28;20054;-78
2023/05/19 12:15:40;;;;;;;4.82;2.50;;;22.70;33.80;;;;;;4971069;28;20107;-77
2023/05/19 12:18:06;;;;;;;4.30;2.30;;;22.00;88.10;;;;;;4971697;28;20467;-78
2023/05/19 12:20:34;;;;;;;6.32;2.25;;;22.50;90.40;;;;;;4952829;28;20050;-78
2023/05/19 12:23:00;;;;;;;6.38;2.30;;;22.60;46.00;;;;;;4961529;28;20127;-76
2023/05/19 12:25:29;;;;;;;3.63;2.05;;;22.40;7.40;;;;;;4969479;28;20046;-78
2023/05/19 12:27:59;;;;;;;5.40;2.30;;;22.70;25.00;;;;;;4954664;28;20049;-77
2023/05/19 12:30:27;;;;;;;6.53;2.75;;;22.80;25.70;;;;;;4957119;28;20069;-78
2023/05/19 12:32:56;;;;;;;3.65;2.45;;;22.60;33.00;;;;;;5000247;28;20475;-79
2023/05/19 12:35:28;;;;;;;4.93;2.20;;;22.90;12.90;;;;;;5002490;28;20049;-79
2023/05/19 12:37:54;;;;;;;5.47;2.63;;;22.60;1.00;;;;;;4985836;28;20531;-79
2023/05/19 12:40:20;;;;;;;4.60;2.20;;;22.30;37.20;;;;;;4947129;28;20042;-77
2023/05/19 12:42:47;;;;;;;4.53;2.30;;;22.40;20.20;;;;;;5012401;28;20034;-79
2023/05/19 12:45:14;;;;;;;5.63;2.50;;;21.60;99.40;;;;;;4997202;28;20069;-77
2023/05/19 12:47:39;;;;;;;4.90;2.08;;;21.90;99.90;;;;;;4968328;28;20054;-77
2023/05/19 12:50:08;;;;;;;4.90;2.53;;;22.50;99.90;;;;;;4963991;28;20101;-77
2023/05/19 12:52:42;;;;;;;4.53;2.35;;;22.90;99.90;;;;;;4981653;28;20042;-76
2023/05/19 12:55:10;;;;;;;3.67;2.20;;;22.80;99.90;;;;;;4997532;28;20103;-78
2023/05/19 12:57:40;;;;;;;8.43;3.10;;;22.70;99.90;;;;;;5040339;28;20038;-74